Observation data for Spur on 01/19/2019      Previous  Date  Next       Current Mesonet Observations  Soil Data  Daily Summary Page  Observations in Plain Language
KSP1 190600Z 35014G21KT 04/M03 A2999 RMK A01 T00391029  RH  061%=      5-min Rain = 0
KSP1 190605Z 35015G21KT 04/M03 A30 RMK A01 T00391028  RH  062%=      5-min Rain = 0
KSP1 190610Z 35015G24KT 04/M03 A30 RMK A01 T00371027  RH  063%=      5-min Rain = 0
KSP1 190615Z 36018G26KT 04/M03 A3001 RMK A01 T00361026  RH  064%=      5-min Rain = 0
KSP1 190620Z 35025G35KT 04/M03 A3001 RMK A01 T00351027  RH  064%=      5-min Rain = 0
KSP1 190625Z 35022G31KT 03/M03 A3001 RMK A01 T00321026  RH  066%=      5-min Rain = 0
KSP1 190630Z 35021G29KT 03/M02 A3002 RMK A01 T00301023  RH  068%=      5-min Rain = 0
KSP1 190635Z 35020G29KT 03/M02 A3002 RMK A01 T00281020  RH  071%=      5-min Rain = 0
KSP1 190640Z 34018G30KT 03/M02 A3002 RMK A01 T00261019  RH  073%=      5-min Rain = 0
KSP1 190645Z 34019G27KT 03/M02 A3003 RMK A01 T00261018  RH  073%=      5-min Rain = 0
KSP1 190650Z 34018G23KT 03/M02 A3003 RMK A01 T00251017  RH  075%=      5-min Rain = 0
KSP1 190655Z 34021G28KT 02/M01 A3003 RMK A01 T00211012  RH  079%=      5-min Rain = 0
KSP1 190700Z 34015G21KT 01/M01 A3004 RMK A01 T00121009  RH  087%=      5-min Rain = 0
KSP1 190705Z 34012KT 01/M01 A3004 RMK A01 T00071008  RH  091%=      5-min Rain = 0
KSP1 190710Z 34014G20KT 01/M00 A3004 RMK A01 T00081004  RH  093%=      5-min Rain = 0
KSP1 190715Z 35019G27KT 01/M01 A3004 RMK A01 T00121005  RH  090%=      5-min Rain = 0
KSP1 190720Z 35018G24KT 02/M01 A3004 RMK A01 T00151008  RH  085%=      5-min Rain = 0
KSP1 190725Z 35019G25KT 02/M01 A3004 RMK A01 T00161010  RH  083%=      5-min Rain = 0
KSP1 190730Z 35019G25KT 02/M01 A3004 RMK A01 T00181012  RH  081%=      5-min Rain = 0
KSP1 190735Z 35019G24KT 02/M01 A3005 RMK A01 T00181012  RH  081%=      5-min Rain = 0
KSP1 190740Z 35017G23KT 02/M01 A3005 RMK A01 T00181012  RH  081%=      5-min Rain = 0
KSP1 190745Z 34019G24KT 02/M01 A3005 RMK A01 T00191012  RH  081%=      5-min Rain = 0
KSP1 190750Z 35018G25KT 02/M01 A3006 RMK A01 T00191011  RH  081%=      5-min Rain = 0
KSP1 190755Z 35017G24KT 02/M01 A3006 RMK A01 T00181010  RH  082%=      5-min Rain = 0
KSP1 190800Z 35018G25KT 02/M01 A3005 RMK A01 T00181011  RH  082%=      5-min Rain = 0
KSP1 190805Z 35018G24KT 02/M01 A3005 RMK A01 T00181010  RH  083%=      5-min Rain = 0
KSP1 190810Z 34017G22KT 02/M01 A3006 RMK A01 T00171008  RH  084%=      5-min Rain = 0
KSP1 190815Z 34015G20KT 02/M01 A3006 RMK A01 T00171008  RH  084%=      5-min Rain = 0
KSP1 190820Z 34014KT 02/M01 A3006 RMK A01 T00171008  RH  085%=      5-min Rain = 0
KSP1 190825Z 34014G19KT 02/M01 A3006 RMK A01 T00171007  RH  085%=      5-min Rain = 0
KSP1 190830Z 34014KT 02/M01 A3006 RMK A01 T00181008  RH  084%=      5-min Rain = 0
KSP1 190835Z 34012KT 02/M01 A3006 RMK A01 T00191008  RH  083%=      5-min Rain = 0
KSP1 190840Z 34013KT 02/M01 A3007 RMK A01 T00201009  RH  082%=      5-min Rain = 0
KSP1 190845Z 34012G17KT 02/M01 A3007 RMK A01 T00221009  RH  081%=      5-min Rain = 0
KSP1 190850Z 34012KT 02/M01 A3007 RMK A01 T00231010  RH  080%=      5-min Rain = 0
KSP1 190855Z 34012G17KT 02/M01 A3007 RMK A01 T00241010  RH  079%=      5-min Rain = 0
KSP1 190900Z 33010G15KT 02/M01 A3007 RMK A01 T00241010  RH  079%=      5-min Rain = 0
KSP1 190905Z 33010KT 02/M01 A3008 RMK A01 T00241009  RH  080%=      5-min Rain = 0
KSP1 190910Z 33009KT 02/M01 A3008 RMK A01 T00241008  RH  080%=      5-min Rain = 0
KSP1 190915Z 33008KT 02/M01 A3008 RMK A01 T00241008  RH  080%=      5-min Rain = 0
KSP1 190920Z 33009KT 02/M01 A3009 RMK A01 T00231008  RH  081%=      5-min Rain = 0
KSP1 190925Z 32010KT 02/M01 A3009 RMK A01 T00231008  RH  081%=      5-min Rain = 0
KSP1 190930Z 32012KT 02/M01 A3009 RMK A01 T00221010  RH  080%=      5-min Rain = 0
KSP1 190935Z 33014G19KT 02/M01 A301 RMK A01 T00231013  RH  078%=      5-min Rain = 0
KSP1 190940Z 33015G21KT 02/M02 A301 RMK A01 T00231017  RH  075%=      5-min Rain = 0
KSP1 190945Z 34018G25KT 02/M02 A301 RMK A01 T00221022  RH  073%=      5-min Rain = 0
KSP1 190950Z 35020G26KT 02/M03 A3011 RMK A01 T00221027  RH  071%=      5-min Rain = 0
KSP1 190955Z 35019G26KT 02/M03 A3011 RMK A01 T00221032  RH  068%=      5-min Rain = 0
KSP1 191000Z 35018G26KT 02/M03 A3011 RMK A01 T00201034  RH  068%=      5-min Rain = 0
KSP1 191005Z 35016G21KT 02/M04 A3011 RMK A01 T00181035  RH  068%=      5-min Rain = 0
KSP1 191010Z 35017G25KT 02/M04 A3011 RMK A01 T00171036  RH  068%=      5-min Rain = 0
KSP1 191015Z 35017G23KT 02/M04 A3012 RMK A01 T00171038  RH  067%=      5-min Rain = 0
KSP1 191020Z 35015G22KT 02/M04 A3012 RMK A01 T00161038  RH  068%=      5-min Rain = 0
KSP1 191025Z 35015G20KT 02/M04 A3012 RMK A01 T00151039  RH  068%=      5-min Rain = 0
KSP1 191030Z 35012KT 01/M04 A3013 RMK A01 T00141039  RH  068%=      5-min Rain = 0
KSP1 191035Z 34010G17KT 01/M04 A3013 RMK A01 T00111038  RH  070%=      5-min Rain = 0
KSP1 191040Z 35013KT 01/M04 A3013 RMK A01 T00111039  RH  070%=      5-min Rain = 0
KSP1 191045Z 35011G16KT 01/M04 A3013 RMK A01 T00101039  RH  070%=      5-min Rain = 0
KSP1 191050Z 34013KT 01/M04 A3014 RMK A01 T00091040  RH  070%=      5-min Rain = 0
KSP1 191055Z 34012G18KT 01/M04 A3014 RMK A01 T00101041  RH  069%=      5-min Rain = 0
KSP1 191100Z 33012G19KT 01/M04 A3015 RMK A01 T00091039  RH  071%=      5-min Rain = 0
KSP1 191105Z 33013KT 01/M04 A3016 RMK A01 T00081039  RH  071%=      5-min Rain = 0
KSP1 191110Z 33015G20KT 01/M04 A3016 RMK A01 T00081041  RH  070%=      5-min Rain = 0
KSP1 191115Z 34015G22KT 01/M04 A3016 RMK A01 T00071042  RH  070%=      5-min Rain = 0
KSP1 191120Z 33016G22KT 01/M04 A3016 RMK A01 T00071044  RH  069%=      5-min Rain = 0
KSP1 191125Z 34016KT 01/M05 A3016 RMK A01 T00061045  RH  069%=      5-min Rain = 0
KSP1 191130Z 34015KT 01/M05 A3017 RMK A01 T00051046  RH  069%=      5-min Rain = 0
KSP1 191135Z 34014KT 00/M05 A3017 RMK A01 T00041046  RH  069%=      5-min Rain = 0
KSP1 191140Z 34013KT 00/M05 A3018 RMK A01 T00041046  RH  069%=      5-min Rain = 0
KSP1 191145Z 34012KT 00/M05 A3018 RMK A01 T00031047  RH  069%=      5-min Rain = 0
KSP1 191150Z 33013G18KT 00/M05 A3018 RMK A01 T00021047  RH  070%=      5-min Rain = 0
KSP1 191155Z 34014G19KT 00/M05 A3018 RMK A01 T00031048  RH  069%=      5-min Rain = 0
KSP1 191200Z 34014G20KT 00/M05 A3019 RMK A01 T00021049  RH  069%=      5-min Rain = 0
KSP1 191205Z 34013G18KT 00/M05 A3019 RMK A01 T00021049  RH  069%=      5-min Rain = 0
KSP1 191210Z 34012G17KT 00/M05 A3019 RMK A01 T00021049  RH  069%=      5-min Rain = 0
KSP1 191215Z 33013KT 00/M05 A3019 RMK A01 T00011048  RH  070%=      5-min Rain = 0
KSP1 191220Z 34012KT 00/05 A3019 RMK A01 T00000-47  RH  071%=      5-min Rain = 0
KSP1 191225Z 34011KT M00/M05 A3019 RMK A01 T10011046  RH  072%=      5-min Rain = 0
KSP1 191230Z 33010KT M00/M05 A3019 RMK A01 T10021045  RH  073%=      5-min Rain = 0
KSP1 191235Z 33010KT M00/M04 A302 RMK A01 T10031044  RH  074%=      5-min Rain = 0
KSP1 191240Z 33010G15KT M00/M04 A302 RMK A01 T10041043  RH  075%=      5-min Rain = 0
KSP1 191245Z 33011KT M01/M04 A302 RMK A01 T10051043  RH  076%=      5-min Rain = 0
KSP1 191250Z 33010KT M01/M04 A302 RMK A01 T10051042  RH  076%=      5-min Rain = 0
KSP1 191255Z 34010KT M01/M04 A302 RMK A01 T10051042  RH  076%=      5-min Rain = 0
KSP1 191300Z 34010KT M01/M04 A302 RMK A01 T10061043  RH  076%=      5-min Rain = 0
KSP1 191305Z 33008KT M01/M04 A302 RMK A01 T10071043  RH  077%=      5-min Rain = 0
KSP1 191310Z 33008KT M01/M04 A302 RMK A01 T10081043  RH  078%=      5-min Rain = 0
KSP1 191315Z 33008KT M01/M04 A302 RMK A01 T10091043  RH  078%=      5-min Rain = 0
KSP1 191320Z 33008KT M01/M04 A3021 RMK A01 T10091043  RH  078%=      5-min Rain = 0
KSP1 191325Z 32008KT M01/M04 A3021 RMK A01 T10101043  RH  079%=      5-min Rain = 0
KSP1 191330Z 32009KT M01/M04 A3022 RMK A01 T10091042  RH  079%=      5-min Rain = 0
KSP1 191335Z 32008KT M01/M04 A3022 RMK A01 T10101043  RH  079%=      5-min Rain = 0
KSP1 191340Z 32008KT M01/M04 A3022 RMK A01 T10121043  RH  080%=      5-min Rain = 0
KSP1 191345Z 31008KT M01/M04 A3022 RMK A01 T10131043  RH  080%=      5-min Rain = 0
KSP1 191350Z 31008KT M01/M04 A3022 RMK A01 T10131043  RH  081%=      5-min Rain = 0
KSP1 191355Z 31008KT M01/M04 A3023 RMK A01 T10131042  RH  081%=      5-min Rain = 0
KSP1 191400Z 32009KT M01/M04 A3023 RMK A01 T10121042  RH  081%=      5-min Rain = 0
KSP1 191405Z 32008KT M01/M04 A3023 RMK A01 T10121041  RH  081%=      5-min Rain = 0
KSP1 191410Z 32008KT M01/M04 A3024 RMK A01 T10111040  RH  081%=      5-min Rain = 0
KSP1 191415Z 32008KT M01/M04 A3024 RMK A01 T10091040  RH  080%=      5-min Rain = 0
KSP1 191420Z 32009KT M01/M04 A3024 RMK A01 T10071039  RH  079%=      5-min Rain = 0
KSP1 191425Z 32009KT M01/M04 A3025 RMK A01 T10051038  RH  079%=      5-min Rain = 0
KSP1 191430Z 32008KT M00/M04 A3025 RMK A01 T10021037  RH  078%=      5-min Rain = 0
KSP1 191435Z 32009KT 00/04 A3026 RMK A01 T00000-36  RH  077%=      5-min Rain = 0
KSP1 191440Z 32011KT 00/M04 A3026 RMK A01 T00021036  RH  076%=      5-min Rain = 0
KSP1 191445Z 32010KT 00/M04 A3026 RMK A01 T00041036  RH  075%=      5-min Rain = 0
KSP1 191450Z 32010G15KT 01/M04 A3027 RMK A01 T00061035  RH  074%=      5-min Rain = 0
KSP1 191455Z 32011G18KT 01/M04 A3028 RMK A01 T00081035  RH  073%=      5-min Rain = 0
KSP1 191500Z 33012G17KT 01/M04 A3028 RMK A01 T00101036  RH  072%=      5-min Rain = 0
KSP1 191505Z 33012KT 01/M04 A3028 RMK A01 T00121036  RH  071%=      5-min Rain = 0
KSP1 191510Z 33012KT 01/M04 A3028 RMK A01 T00141036  RH  070%=      5-min Rain = 0
KSP1 191515Z 33013KT 02/M04 A3029 RMK A01 T00151036  RH  069%=      5-min Rain = 0
KSP1 191520Z 33012KT 02/M04 A3029 RMK A01 T00171035  RH  069%=      5-min Rain = 0
KSP1 191525Z 33013G19KT 02/M04 A3029 RMK A01 T00191035  RH  068%=      5-min Rain = 0
KSP1 191530Z 34013KT 02/M04 A3029 RMK A01 T00201035  RH  067%=      5-min Rain = 0
KSP1 191535Z 34015G20KT 02/M04 A303 RMK A01 T00231035  RH  066%=      5-min Rain = 0
KSP1 191540Z 34015G20KT 02/M04 A303 RMK A01 T00241037  RH  064%=      5-min Rain = 0
KSP1 191545Z 35017G22KT 03/M04 A303 RMK A01 T00261038  RH  063%=      5-min Rain = 0
KSP1 191550Z 34018KT 03/M04 A303 RMK A01 T00271039  RH  062%=      5-min Rain = 0
KSP1 191555Z 35016G22KT 03/M04 A3031 RMK A01 T00301038  RH  062%=      5-min Rain = 0
KSP1 191600Z 34018G23KT 03/M04 A3031 RMK A01 T00321040  RH  060%=      5-min Rain = 0
KSP1 191605Z 34019G24KT 03/M04 A3031 RMK A01 T00321040  RH  059%=      5-min Rain = 0
KSP1 191610Z 36017G26KT 03/M04 A3031 RMK A01 T00341043  RH  057%=      5-min Rain = 0
KSP1 191615Z 35016G21KT 04/M04 A3031 RMK A01 T00361042  RH  057%=      5-min Rain = 0
KSP1 191620Z 35017G24KT 04/M04 A3031 RMK A01 T00391041  RH  056%=      5-min Rain = 0
KSP1 191625Z 35019G27KT 04/M04 A3031 RMK A01 T00381041  RH  057%=      5-min Rain = 0
KSP1 191630Z 35018G25KT 04/M04 A3031 RMK A01 T00391041  RH  056%=      5-min Rain = 0
KSP1 191635Z 36018G23KT 04/M04 A3031 RMK A01 T00401041  RH  056%=      5-min Rain = 0
KSP1 191640Z 35017G23KT 04/M04 A3031 RMK A01 T00411039  RH  056%=      5-min Rain = 0
KSP1 191645Z 36016G22KT 05/M04 A3032 RMK A01 T00451039  RH  055%=      5-min Rain = 0
KSP1 191650Z 36016G21KT 04/M04 A3032 RMK A01 T00441040  RH  055%=      5-min Rain = 0
KSP1 191655Z 35017G23KT 05/M04 A3032 RMK A01 T00451040  RH  054%=      5-min Rain = 0
KSP1 191700Z 35017G23KT 05/M04 A3032 RMK A01 T00461040  RH  054%=      5-min Rain = 0
KSP1 191705Z 35019G24KT 05/M04 A3032 RMK A01 T00491040  RH  053%=      5-min Rain = 0
KSP1 191710Z 36018KT 05/M04 A3032 RMK A01 T00501041  RH  052%=      5-min Rain = 0
KSP1 191715Z 35017G23KT 05/M04 A3032 RMK A01 T00481041  RH  053%=      5-min Rain = 0
KSP1 191720Z 35017KT 05/M04 A3032 RMK A01 T00501040  RH  053%=      5-min Rain = 0
KSP1 191725Z 36016G21KT 05/M04 A3032 RMK A01 T00511040  RH  052%=      5-min Rain = 0
KSP1 191730Z 35015KT 05/M04 A3032 RMK A01 T00521039  RH  052%=      5-min Rain = 0
KSP1 191735Z 35015G20KT 06/M04 A3032 RMK A01 T00551039  RH  051%=      5-min Rain = 0
KSP1 191740Z 35015KT 06/M04 A3032 RMK A01 T00571039  RH  050%=      5-min Rain = 0
KSP1 191745Z 35015KT 06/M04 A3032 RMK A01 T00581039  RH  050%=      5-min Rain = 0
KSP1 191750Z 36015KT 06/M04 A3032 RMK A01 T00591039  RH  049%=      5-min Rain = 0
KSP1 191755Z 00014KT 06/M04 A3032 RMK A01 T00591040  RH  049%=      5-min Rain = 0
KSP1 191800Z 35014G19KT 06/M04 A3031 RMK A01 T00601039  RH  049%=      5-min Rain = 0
KSP1 191805Z 36016G21KT 06/M04 A3031 RMK A01 T00621041  RH  048%=      5-min Rain = 0
KSP1 191810Z 34017G22KT 07/M04 A3031 RMK A01 T00661040  RH  047%=      5-min Rain = 0
KSP1 191815Z 35015KT 07/M04 A303 RMK A01 T00671040  RH  046%=      5-min Rain = 0
KSP1 191820Z 00011G16KT 07/M04 A303 RMK A01 T00701039  RH  046%=      5-min Rain = 0
KSP1 191825Z 01013G18KT 07/M04 A303 RMK A01 T00691040  RH  046%=      5-min Rain = 0
KSP1 191830Z 01011G16KT 07/M04 A303 RMK A01 T00681041  RH  046%=      5-min Rain = 0
KSP1 191835Z 35012G18KT 07/M04 A303 RMK A01 T00721039  RH  046%=      5-min Rain = 0
KSP1 191840Z 34014KT 08/M04 A303 RMK A01 T00761041  RH  043%=      5-min Rain = 0
KSP1 191845Z 36010KT 08/M04 A3029 RMK A01 T00771039  RH  044%=      5-min Rain = 0
KSP1 191850Z 35011KT 08/M04 A3029 RMK A01 T00791039  RH  043%=      5-min Rain = 0
KSP1 191855Z 00012KT 08/M04 A3029 RMK A01 T00801041  RH  042%=      5-min Rain = 0
KSP1 191900Z 35011G17KT 08/M04 A3029 RMK A01 T00821040  RH  042%=      5-min Rain = 0
KSP1 191905Z 36013G18KT 08/M04 A3028 RMK A01 T00841043  RH  041%=      5-min Rain = 0
KSP1 191910Z 36014G19KT 08/M04 A3028 RMK A01 T00841042  RH  041%=      5-min Rain = 0
KSP1 191915Z 34014G19KT 08/M04 A3028 RMK A01 T00831041  RH  041%=      5-min Rain = 0
KSP1 191920Z 36009G16KT 09/M04 A3028 RMK A01 T00871040  RH  041%=      5-min Rain = 0
KSP1 191925Z 36011KT 09/M04 A3028 RMK A01 T00891040  RH  040%=      5-min Rain = 0
KSP1 191930Z 35011KT 09/M04 A3027 RMK A01 T00911040  RH  040%=      5-min Rain = 0
KSP1 191935Z 36010G15KT 09/M04 A3027 RMK A01 T00921038  RH  040%=      5-min Rain = 0
KSP1 191940Z 36011KT 09/M04 A3027 RMK A01 T00931039  RH  039%=      5-min Rain = 0
KSP1 191945Z 00011G16KT 09/M04 A3027 RMK A01 T00921042  RH  039%=      5-min Rain = 0
KSP1 191950Z 36011G16KT 09/M04 A3027 RMK A01 T00891043  RH  039%=      5-min Rain = 0
KSP1 191955Z 00010G16KT 09/M04 A3027 RMK A01 T00911041  RH  039%=      5-min Rain = 0
KSP1 192000Z 00011KT 09/M04 A3026 RMK A01 T00941040  RH  039%=      5-min Rain = 0
KSP1 192005Z 35011KT 10/M05 A3026 RMK A01 T00961045  RH  037%=      5-min Rain = 0
KSP1 192010Z 35012G17KT 10/M04 A3026 RMK A01 T00991043  RH  036%=      5-min Rain = 0
KSP1 192015Z 34013G18KT 10/M05 A3026 RMK A01 T01001045  RH  036%=      5-min Rain = 0
KSP1 192020Z 32014G20KT 10/M04 A3026 RMK A01 T00991042  RH  037%=      5-min Rain = 0
KSP1 192025Z 34011KT 10/M04 A3026 RMK A01 T01001042  RH  037%=      5-min Rain = 0
KSP1 192030Z 33014G19KT 10/M05 A3025 RMK A01 T01011046  RH  035%=      5-min Rain = 0
KSP1 192035Z 33015G21KT 10/M05 A3025 RMK A01 T01011046  RH  035%=      5-min Rain = 0
KSP1 192040Z 33013KT 10/M05 A3025 RMK A01 T01011047  RH  035%=      5-min Rain = 0
KSP1 192045Z 35012KT 10/M05 A3025 RMK A01 T01031047  RH  035%=      5-min Rain = 0
KSP1 192050Z 34014KT 11/M05 A3025 RMK A01 T01051049  RH  034%=      5-min Rain = 0
KSP1 192055Z 34014G23KT 11/M05 A3025 RMK A01 T01071047  RH  034%=      5-min Rain = 0
KSP1 192100Z 35014KT 11/M05 A3025 RMK A01 T01081049  RH  033%=      5-min Rain = 0
KSP1 192105Z 35014G19KT 11/M05 A3025 RMK A01 T01061049  RH  033%=      5-min Rain = 0
KSP1 192110Z 35015G22KT 11/M05 A3025 RMK A01 T01071049  RH  033%=      5-min Rain = 0
KSP1 192115Z 35016G21KT 11/M05 A3024 RMK A01 T01081052  RH  032%=      5-min Rain = 0
KSP1 192120Z 34014G20KT 11/M05 A3025 RMK A01 T01091050  RH  032%=      5-min Rain = 0
KSP1 192125Z 35014G19KT 11/M05 A3025 RMK A01 T01121049  RH  032%=      5-min Rain = 0
KSP1 192130Z 35015G21KT 11/M05 A3025 RMK A01 T01101054  RH  031%=      5-min Rain = 0
KSP1 192135Z 01017G23KT 11/M06 A3025 RMK A01 T01081057  RH  031%=      5-min Rain = 0
KSP1 192140Z 00016G22KT 11/M06 A3025 RMK A01 T01071056  RH  031%=      5-min Rain = 0
KSP1 192145Z 35016G21KT 11/M06 A3025 RMK A01 T01061055  RH  032%=      5-min Rain = 0
KSP1 192150Z 36012G17KT 11/M05 A3025 RMK A01 T01081052  RH  032%=      5-min Rain = 0
KSP1 192155Z 00013G18KT 11/M05 A3025 RMK A01 T01091053  RH  032%=      5-min Rain = 0
KSP1 192200Z 00010G16KT 11/M05 A3025 RMK A01 T01081052  RH  032%=      5-min Rain = 0
KSP1 192205Z 00013G19KT 11/M05 A3025 RMK A01 T01081052  RH  032%=      5-min Rain = 0
KSP1 192210Z 35011KT 11/M05 A3025 RMK A01 T01081051  RH  032%=      5-min Rain = 0
KSP1 192215Z 36010KT 11/M05 A3025 RMK A01 T01091050  RH  032%=      5-min Rain = 0
KSP1 192220Z 35010G16KT 11/M05 A3025 RMK A01 T01091050  RH  032%=      5-min Rain = 0
KSP1 192225Z 34013G18KT 11/M05 A3025 RMK A01 T01091050  RH  032%=      5-min Rain = 0
KSP1 192230Z 35014G19KT 11/M05 A3026 RMK A01 T01091051  RH  032%=      5-min Rain = 0
KSP1 192235Z 35012KT 11/M05 A3025 RMK A01 T01081051  RH  032%=      5-min Rain = 0
KSP1 192240Z 34013KT 11/M05 A3025 RMK A01 T01091051  RH  032%=      5-min Rain = 0
KSP1 192245Z 34012KT 11/M05 A3026 RMK A01 T01101052  RH  032%=      5-min Rain = 0
KSP1 192250Z 36011G16KT 11/M05 A3026 RMK A01 T01091053  RH  032%=      5-min Rain = 0
KSP1 192255Z 35012G17KT 11/M05 A3026 RMK A01 T01081052  RH  032%=      5-min Rain = 0
KSP1 192300Z 35013KT 11/M05 A3025 RMK A01 T01071053  RH  032%=      5-min Rain = 0
KSP1 192305Z 35011G16KT 11/M05 A3026 RMK A01 T01051052  RH  033%=      5-min Rain = 0
KSP1 192310Z 00010KT 11/M05 A3025 RMK A01 T01051052  RH  033%=      5-min Rain = 0
KSP1 192315Z 01011KT 10/M05 A3025 RMK A01 T01031052  RH  033%=      5-min Rain = 0
KSP1 192320Z 00011KT 10/M05 A3025 RMK A01 T01011052  RH  034%=      5-min Rain = 0
KSP1 192325Z 01010KT 10/M05 A3025 RMK A01 T01001051  RH  034%=      5-min Rain = 0
KSP1 192330Z 01008KT 10/M05 A3025 RMK A01 T00971051  RH  035%=      5-min Rain = 0
KSP1 192335Z 02008KT 10/M05 A3025 RMK A01 T00951050  RH  036%=      5-min Rain = 0
KSP1 192340Z 02007KT 09/M05 A3025 RMK A01 T00931049  RH  037%=      5-min Rain = 0
KSP1 192345Z 02006KT 09/M05 A3025 RMK A01 T00911048  RH  037%=      5-min Rain = 0
KSP1 192350Z 02006KT 09/M05 A3025 RMK A01 T00881047  RH  038%=      5-min Rain = 0
KSP1 192355Z 03006KT 09/M05 A3025 RMK A01 T00851047  RH  039%=      5-min Rain = 0
KSP1 200000Z 02006KT 08/M05 A3026 RMK A01 T00821047  RH  040%=      5-min Rain = 0
KSP1 200005Z 03006KT 08/M05 A3026 RMK A01 T00771046  RH  041%=      5-min Rain = 0
KSP1 200010Z 02006KT 07/M05 A3026 RMK A01 T00731046  RH  043%=      5-min Rain = 0
KSP1 200015Z 02006KT 07/M05 A3026 RMK A01 T00701046  RH  043%=      5-min Rain = 0
KSP1 200020Z 03006KT 07/M05 A3026 RMK A01 T00681047  RH  044%=      5-min Rain = 0
KSP1 200025Z 03006KT 07/M05 A3026 RMK A01 T00651047  RH  045%=      5-min Rain = 0
KSP1 200030Z 03005KT 06/M05 A3026 RMK A01 T00621047  RH  046%=      5-min Rain = 0
KSP1 200035Z 04006KT 06/M05 A3026 RMK A01 T00591047  RH  047%=      5-min Rain = 0
KSP1 200040Z 04006KT 05/M05 A3026 RMK A01 T00541046  RH  049%=      5-min Rain = 0
KSP1 200045Z 03005KT 05/M05 A3027 RMK A01 T00521045  RH  050%=      5-min Rain = 0
KSP1 200050Z 03004KT 05/M05 A3027 RMK A01 T00511046  RH  050%=      5-min Rain = 0
KSP1 200055Z 02004KT 05/M05 A3027 RMK A01 T00511045  RH  050%=      5-min Rain = 0
KSP1 200100Z 01005KT 05/M05 A3027 RMK A01 T00491045  RH  051%=      5-min Rain = 0
KSP1 200105Z 00004KT 05/M05 A3027 RMK A01 T00461047  RH  051%=      5-min Rain = 0
KSP1 200110Z 00004KT 04/M05 A3027 RMK A01 T00401047  RH  053%=      5-min Rain = 0
KSP1 200115Z 02004KT 04/M05 A3027 RMK A01 T00371046  RH  054%=      5-min Rain = 0
KSP1 200120Z 02005KT 04/M04 A3028 RMK A01 T00381044  RH  055%=      5-min Rain = 0
KSP1 200125Z 02004KT 04/M05 A3028 RMK A01 T00391045  RH  054%=      5-min Rain = 0
KSP1 200130Z 04004KT 04/M05 A3028 RMK A01 T00361046  RH  055%=      5-min Rain = 0
KSP1 200135Z 04004KT 03/M05 A3028 RMK A01 T00341046  RH  056%=      5-min Rain = 0
KSP1 200140Z 05004KT 03/M05 A3028 RMK A01 T00301047  RH  057%=      5-min Rain = 0
KSP1 200145Z 04004KT 03/M05 A3028 RMK A01 T00251046  RH  060%=      5-min Rain = 0
KSP1 200150Z 03004KT 03/M05 A3028 RMK A01 T00261046  RH  060%=      5-min Rain = 0
KSP1 200155Z 04003KT 03/M05 A3028 RMK A01 T00261045  RH  059%=      5-min Rain = 0
KSP1 200200Z 04002KT 03/M05 A3028 RMK A01 T00251046  RH  060%=      5-min Rain = 0
KSP1 200205Z 05003KT 02/M05 A3028 RMK A01 T00241046  RH  060%=      5-min Rain = 0
KSP1 200210Z 05003KT 02/M05 A3027 RMK A01 T00231046  RH  061%=      5-min Rain = 0
KSP1 200215Z 04004KT 02/M05 A3027 RMK A01 T00221046  RH  061%=      5-min Rain = 0
KSP1 200220Z 04004KT 02/M05 A3027 RMK A01 T00211047  RH  061%=      5-min Rain = 0
KSP1 200225Z 05003KT 02/M05 A3027 RMK A01 T00191048  RH  061%=      5-min Rain = 0
KSP1 200230Z 06003KT 02/M05 A3027 RMK A01 T00151047  RH  063%=      5-min Rain = 0
KSP1 200235Z 07003KT 02/M05 A3027 RMK A01 T00151046  RH  064%=      5-min Rain = 0
KSP1 200240Z 07002KT 02/M05 A3028 RMK A01 T00151046  RH  064%=      5-min Rain = 0
KSP1 200245Z 25001KT 01/M05 A3028 RMK A01 T00081052  RH  064%=      5-min Rain = 0
KSP1 200250Z 28001KT 00/M05 A3028 RMK A01 T00021051  RH  068%=      5-min Rain = 0
KSP1 200255Z 01002KT 00/M05 A3028 RMK A01 T00011048  RH  070%=      5-min Rain = 0
KSP1 200300Z 03003KT 00/M05 A3029 RMK A01 T00011048  RH  070%=      5-min Rain = 0
KSP1 200305Z 05003KT 00/M05 A3029 RMK A01 T00031046  RH  070%=      5-min Rain = 0
KSP1 200310Z 06001KT 00/M05 A3029 RMK A01 T00041046  RH  069%=      5-min Rain = 0
KSP1 200315Z 21001KT M00/M05 A303 RMK A01 T10011052  RH  068%=      5-min Rain = 0
KSP1 200320Z 14000KT M01/M06 A303 RMK A01 T10101057  RH  071%=      5-min Rain = 0
KSP1 200325Z 07001KT M01/M06 A303 RMK A01 T10141055  RH  074%=      5-min Rain = 0
KSP1 200330Z 05002KT M01/M05 A303 RMK A01 T10111051  RH  075%=      5-min Rain = 0
KSP1 200335Z 04002KT M01/M05 A3029 RMK A01 T10091050  RH  074%=      5-min Rain = 0
KSP1 200340Z 02002KT M01/M05 A3029 RMK A01 T10081050  RH  073%=      5-min Rain = 0
KSP1 200345Z 04003KT M01/M05 A303 RMK A01 T10081049  RH  074%=      5-min Rain = 0
KSP1 200350Z 02004KT M00/M05 A303 RMK A01 T10041045  RH  074%=      5-min Rain = 0
KSP1 200355Z 04003KT M00/M05 A303 RMK A01 T10031046  RH  073%=      5-min Rain = 0
KSP1 200400Z 07003KT M00/M05 A3031 RMK A01 T10041046  RH  074%=      5-min Rain = 0
KSP1 200405Z 08003KT M00/M05 A303 RMK A01 T10031045  RH  073%=      5-min Rain = 0
KSP1 200410Z 08005KT 00/04 A3029 RMK A01 T00000-43  RH  073%=      5-min Rain = 0
KSP1 200415Z 08004KT 00/M04 A3029 RMK A01 T00021044  RH  071%=      5-min Rain = 0
KSP1 200420Z 07004KT 00/M05 A3029 RMK A01 T00031045  RH  070%=      5-min Rain = 0
KSP1 200425Z 06003KT 00/M05 A3029 RMK A01 T00021046  RH  070%=      5-min Rain = 0
KSP1 200430Z 09003KT 00/M05 A3029 RMK A01 T00011045  RH  071%=      5-min Rain = 0
KSP1 200435Z 09003KT 00/M04 A303 RMK A01 T00031044  RH  071%=      5-min Rain = 0
KSP1 200440Z 08003KT 01/M05 A303 RMK A01 T00061045  RH  069%=      5-min Rain = 0
KSP1 200445Z 08002KT 01/M05 A3031 RMK A01 T00051047  RH  068%=      5-min Rain = 0
KSP1 200450Z 09002KT 00/M05 A3031 RMK A01 T00031048  RH  069%=      5-min Rain = 0
KSP1 200455Z 17003KT 00/05 A303 RMK A01 T00-00-51  RH  069%=      5-min Rain = 0
KSP1 200500Z 15002KT M01/M06 A303 RMK A01 T10121057  RH  072%=      5-min Rain = 0
KSP1 200505Z 13001KT M01/M05 A3031 RMK A01 T10141053  RH  075%=      5-min Rain = 0
KSP1 200510Z 10001KT M02/M05 A3031 RMK A01 T10151053  RH  076%=      5-min Rain = 0
KSP1 200515Z 06002KT M02/M05 A3031 RMK A01 T10181054  RH  077%=      5-min Rain = 0
KSP1 200520Z 09003KT M02/M05 A303 RMK A01 T10181051  RH  078%=      5-min Rain = 0
KSP1 200525Z 08004KT M01/M05 A303 RMK A01 T10121049  RH  076%=      5-min Rain = 0
KSP1 200530Z 07002KT M01/M05 A303 RMK A01 T10111052  RH  074%=      5-min Rain = 0
KSP1 200535Z 11001KT M01/M05 A3031 RMK A01 T10111053  RH  073%=      5-min Rain = 0
KSP1 200540Z 14001KT M01/M06 A3031 RMK A01 T10121055  RH  073%=      5-min Rain = 0
KSP1 200545Z 09002KT M01/M06 A3031 RMK A01 T10141056  RH  073%=      5-min Rain = 0
KSP1 200550Z 04002KT M02/M06 A3032 RMK A01 T10161057  RH  074%=      5-min Rain = 0
KSP1 200555Z 04003KT M02/M06 A3032 RMK A01 T10181055  RH  076%=      5-min Rain = 0

Page generated in 0.009 seconds.